sensor_id;sensor_type;location;lat;lon;timestamp;temperature;humidity
7366;DHT22;3723;52.220;8.792;2023-08-17T00:00:39;17.50;99.90
7366;DHT22;3723;52.220;8.792;2023-08-17T00:06:51;17.40;99.90
7366;DHT22;3723;52.220;8.792;2023-08-17T00:09:18;17.40;99.90
7366;DHT22;3723;52.220;8.792;2023-08-17T00:11:47;17.30;99.90
7366;DHT22;3723;52.220;8.792;2023-08-17T00:14:26;17.30;99.90
7366;DHT22;3723;52.220;8.792;2023-08-17T00:16:53;17.30;99.90
7366;DHT22;3723;52.220;8.792;2023-08-17T00:19:20;17.30;99.90
7366;DHT22;3723;52.220;8.792;2023-08-17T00:21:47;17.30;99.90
7366;DHT22;3723;52.220;8.792;2023-08-17T00:24:14;17.30;99.90
7366;DHT22;3723;52.220;8.792;2023-08-17T00:26:41;17.20;99.90
7366;DHT22;3723;52.220;8.792;2023-08-17T00:29:09;17.10;99.90
7366;DHT22;3723;52.220;8.792;2023-08-17T00:31:36;17.10;99.90
7366;DHT22;3723;52.220;8.792;2023-08-17T00:34:09;17.00;99.90
7366;DHT22;3723;52.220;8.792;2023-08-17T00:36:35;17.00;99.90
7366;DHT22;3723;52.220;8.792;2023-08-17T00:39:02;16.90;99.90
7366;DHT22;3723;52.220;8.792;2023-08-17T00:41:45;16.90;99.90
7366;DHT22;3723;52.220;8.792;2023-08-17T00:44:14;16.80;99.90
7366;DHT22;3723;52.220;8.792;2023-08-17T00:46:41;16.70;99.90
7366;DHT22;3723;52.220;8.792;2023-08-17T00:49:08;16.60;99.90
7366;DHT22;3723;52.220;8.792;2023-08-17T00:51:35;16.50;99.90
7366;DHT22;3723;52.220;8.792;2023-08-17T00:54:02;16.50;99.90
7366;DHT22;3723;52.220;8.792;2023-08-17T00:56:30;16.40;99.90
7366;DHT22;3723;52.220;8.792;2023-08-17T00:58:57;16.20;99.90
7366;DHT22;3723;52.220;8.792;2023-08-17T01:01:51;16.20;99.90
7366;DHT22;3723;52.220;8.792;2023-08-17T01:04:18;16.00;1.00
7366;DHT22;3723;52.220;8.792;2023-08-17T01:06:45;16.00;1.00
7366;DHT22;3723;52.220;8.792;2023-08-17T01:09:13;16.00;1.00
7366;DHT22;3723;52.220;8.792;2023-08-17T01:11:47;15.90;1.00
7366;DHT22;3723;52.220;8.792;2023-08-17T01:17:44;15.90;1.00
7366;DHT22;3723;52.220;8.792;2023-08-17T01:20:15;15.80;1.00
7366;DHT22;3723;52.220;8.792;2023-08-17T01:22:50;15.80;1.00
7366;DHT22;3723;52.220;8.792;2023-08-17T01:28:28;15.70;1.00
7366;DHT22;3723;52.220;8.792;2023-08-17T01:30:59;15.70;1.00
7366;DHT22;3723;52.220;8.792;2023-08-17T01:33:31;15.70;1.00
7366;DHT22;3723;52.220;8.792;2023-08-17T01:36:07;15.70;1.00
7366;DHT22;3723;52.220;8.792;2023-08-17T01:38:51;15.70;1.00
7366;DHT22;3723;52.220;8.792;2023-08-17T01:44:37;15.80;1.00
7366;DHT22;3723;52.220;8.792;2023-08-17T01:47:05;15.80;1.00
7366;DHT22;3723;52.220;8.792;2023-08-17T01:49:31;15.80;1.00
7366;DHT22;3723;52.220;8.792;2023-08-17T01:51:58;15.80;3.40
7366;DHT22;3723;52.220;8.792;2023-08-17T01:54:26;15.80;20.30
7366;DHT22;3723;52.220;8.792;2023-08-17T01:56:53;15.80;82.40
7366;DHT22;3723;52.220;8.792;2023-08-17T01:59:20;15.70;79.10
7366;DHT22;3723;52.220;8.792;2023-08-17T02:01:48;15.70;99.90
7366;DHT22;3723;52.220;8.792;2023-08-17T02:04:16;15.70;99.10
7366;DHT22;3723;52.220;8.792;2023-08-17T02:06:43;15.70;99.90
7366;DHT22;3723;52.220;8.792;2023-08-17T02:09:10;15.70;99.90
7366;DHT22;3723;52.220;8.792;2023-08-17T02:11:36;15.60;99.90
7366;DHT22;3723;52.220;8.792;2023-08-17T02:14:03;15.60;99.90
7366;DHT22;3723;52.220;8.792;2023-08-17T02:16:30;15.70;99.90
7366;DHT22;3723;52.220;8.792;2023-08-17T02:18:59;15.70;99.90
7366;DHT22;3723;52.220;8.792;2023-08-17T02:21:26;15.70;99.90
7366;DHT22;3723;52.220;8.792;2023-08-17T02:23:52;15.70;99.90
7366;DHT22;3723;52.220;8.792;2023-08-17T02:26:20;15.70;99.90
7366;DHT22;3723;52.220;8.792;2023-08-17T02:28:49;15.70;99.90
7366;DHT22;3723;52.220;8.792;2023-08-17T02:31:15;15.70;99.90
7366;DHT22;3723;52.220;8.792;2023-08-17T02:33:42;15.60;99.90
7366;DHT22;3723;52.220;8.792;2023-08-17T02:36:11;15.70;99.90
7366;DHT22;3723;52.220;8.792;2023-08-17T02:38:39;15.60;99.90
7366;DHT22;3723;52.220;8.792;2023-08-17T02:41:12;15.60;99.90
7366;DHT22;3723;52.220;8.792;2023-08-17T02:43:39;15.60;99.90
7366;DHT22;3723;52.220;8.792;2023-08-17T02:46:07;15.60;99.90
7366;DHT22;3723;52.220;8.792;2023-08-17T02:48:35;15.60;99.90
7366;DHT22;3723;52.220;8.792;2023-08-17T02:51:02;15.60;99.90
7366;DHT22;3723;52.220;8.792;2023-08-17T02:53:30;15.50;99.90
7366;DHT22;3723;52.220;8.792;2023-08-17T02:55:57;15.60;99.90
7366;DHT22;3723;52.220;8.792;2023-08-17T02:58:26;15.50;99.90
7366;DHT22;3723;52.220;8.792;2023-08-17T03:00:53;15.60;99.90
7366;DHT22;3723;52.220;8.792;2023-08-17T03:03:20;15.50;99.90
7366;DHT22;3723;52.220;8.792;2023-08-17T03:05:47;15.60;99.90
7366;DHT22;3723;52.220;8.792;2023-08-17T03:08:14;15.60;99.90
7366;DHT22;3723;52.220;8.792;2023-08-17T03:10:42;15.60;99.90
7366;DHT22;3723;52.220;8.792;2023-08-17T03:13:09;15.60;99.90
7366;DHT22;3723;52.220;8.792;2023-08-17T03:15:41;15.60;99.90
7366;DHT22;3723;52.220;8.792;2023-08-17T03:18:08;15.60;99.90
7366;DHT22;3723;52.220;8.792;2023-08-17T03:20:35;15.60;99.90
7366;DHT22;3723;52.220;8.792;2023-08-17T03:23:02;15.60;99.90
7366;DHT22;3723;52.220;8.792;2023-08-17T03:25:31;15.60;99.90
7366;DHT22;3723;52.220;8.792;2023-08-17T03:28:00;15.60;82.10
7366;DHT22;3723;52.220;8.792;2023-08-17T03:30:27;15.60;30.70
7366;DHT22;3723;52.220;8.792;2023-08-17T03:32:54;15.60;35.90
7366;DHT22;3723;52.220;8.792;2023-08-17T03:35:21;15.60;18.40
7366;DHT22;3723;52.220;8.792;2023-08-17T03:37:49;15.60;1.00
7366;DHT22;3723;52.220;8.792;2023-08-17T03:40:16;15.60;1.00
7366;DHT22;3723;52.220;8.792;2023-08-17T03:42:43;15.60;1.00
7366;DHT22;3723;52.220;8.792;2023-08-17T03:45:11;15.70;1.00
7366;DHT22;3723;52.220;8.792;2023-08-17T03:47:39;15.70;1.00
7366;DHT22;3723;52.220;8.792;2023-08-17T03:50:11;15.70;14.30
7366;DHT22;3723;52.220;8.792;2023-08-17T03:52:38;15.70;1.00
7366;DHT22;3723;52.220;8.792;2023-08-17T03:55:06;15.70;10.30
7366;DHT22;3723;52.220;8.792;2023-08-17T03:57:35;15.70;1.00
7366;DHT22;3723;52.220;8.792;2023-08-17T04:00:02;15.70;14.10
7366;DHT22;3723;52.220;8.792;2023-08-17T04:02:32;15.70;10.20
7366;DHT22;3723;52.220;8.792;2023-08-17T04:04:59;15.70;20.10
7366;DHT22;3723;52.220;8.792;2023-08-17T04:07:26;15.70;75.40
7366;DHT22;3723;52.220;8.792;2023-08-17T04:09:53;15.70;99.80
7366;DHT22;3723;52.220;8.792;2023-08-17T04:12:20;15.70;64.70
7366;DHT22;3723;52.220;8.792;2023-08-17T04:14:51;15.80;99.90
7366;DHT22;3723;52.220;8.792;2023-08-17T04:17:18;15.70;99.90
7366;DHT22;3723;52.220;8.792;2023-08-17T04:19:53;15.70;99.90
7366;DHT22;3723;52.220;8.792;2023-08-17T04:22:20;15.70;99.90
7366;DHT22;3723;52.220;8.792;2023-08-17T04:24:47;15.70;99.90
7366;DHT22;3723;52.220;8.792;2023-08-17T04:27:21;15.70;99.90
7366;DHT22;3723;52.220;8.792;2023-08-17T04:29:48;15.70;99.90
7366;DHT22;3723;52.220;8.792;2023-08-17T04:32:17;15.70;99.90
7366;DHT22;3723;52.220;8.792;2023-08-17T04:34:45;15.60;99.90
7366;DHT22;3723;52.220;8.792;2023-08-17T04:37:15;15.60;99.90
7366;DHT22;3723;52.220;8.792;2023-08-17T04:39:42;15.60;99.90
7366;DHT22;3723;52.220;8.792;2023-08-17T04:42:10;15.60;99.90
7366;DHT22;3723;52.220;8.792;2023-08-17T04:44:52;15.60;99.90
7366;DHT22;3723;52.220;8.792;2023-08-17T04:47:19;15.60;99.90
7366;DHT22;3723;52.220;8.792;2023-08-17T04:49:46;15.60;99.90
7366;DHT22;3723;52.220;8.792;2023-08-17T04:52:15;15.70;99.90
7366;DHT22;3723;52.220;8.792;2023-08-17T04:54:41;15.70;99.90
7366;DHT22;3723;52.220;8.792;2023-08-17T04:57:10;15.60;99.90
7366;DHT22;3723;52.220;8.792;2023-08-17T04:59:36;15.60;61.70
7366;DHT22;3723;52.220;8.792;2023-08-17T05:02:22;15.60;16.40
7366;DHT22;3723;52.220;8.792;2023-08-17T05:04:54;15.60;28.10
7366;DHT22;3723;52.220;8.792;2023-08-17T05:07:22;15.70;58.10
7366;DHT22;3723;52.220;8.792;2023-08-17T05:09:50;15.70;31.90
7366;DHT22;3723;52.220;8.792;2023-08-17T05:12:17;15.80;10.20
7366;DHT22;3723;52.220;8.792;2023-08-17T05:14:45;15.80;75.50
7366;DHT22;3723;52.220;8.792;2023-08-17T05:17:12;15.80;47.90
7366;DHT22;3723;52.220;8.792;2023-08-17T05:19:39;15.80;1.00
7366;DHT22;3723;52.220;8.792;2023-08-17T05:22:10;15.90;1.30
7366;DHT22;3723;52.220;8.792;2023-08-17T05:24:39;15.90;66.20
7366;DHT22;3723;52.220;8.792;2023-08-17T05:27:06;15.90;91.70
7366;DHT22;3723;52.220;8.792;2023-08-17T05:29:33;15.90;31.50
7366;DHT22;3723;52.220;8.792;2023-08-17T05:32:00;15.90;39.40
7366;DHT22;3723;52.220;8.792;2023-08-17T05:34:33;16.00;1.00
7366;DHT22;3723;52.220;8.792;2023-08-17T05:37:01;16.00;1.00
7366;DHT22;3723;52.220;8.792;2023-08-17T05:39:28;16.00;1.00
7366;DHT22;3723;52.220;8.792;2023-08-17T05:41:57;16.10;7.50
7366;DHT22;3723;52.220;8.792;2023-08-17T05:44:24;16.10;7.70
7366;DHT22;3723;52.220;8.792;2023-08-17T05:46:50;16.10;19.40
7366;DHT22;3723;52.220;8.792;2023-08-17T05:49:19;16.10;1.00
7366;DHT22;3723;52.220;8.792;2023-08-17T05:51:47;16.10;1.00
7366;DHT22;3723;52.220;8.792;2023-08-17T05:54:14;16.20;1.00
7366;DHT22;3723;52.220;8.792;2023-08-17T05:56:40;16.20;1.00
7366;DHT22;3723;52.220;8.792;2023-08-17T05:59:24;16.30;20.10
7366;DHT22;3723;52.220;8.792;2023-08-17T06:01:54;16.30;1.00
7366;DHT22;3723;52.220;8.792;2023-08-17T06:04:21;16.30;1.00
7366;DHT22;3723;52.220;8.792;2023-08-17T06:06:49;16.30;1.00
7366;DHT22;3723;52.220;8.792;2023-08-17T06:09:16;16.30;1.00
7366;DHT22;3723;52.220;8.792;2023-08-17T06:11:49;16.30;1.00
7366;DHT22;3723;52.220;8.792;2023-08-17T06:14:22;16.30;1.00
7366;DHT22;3723;52.220;8.792;2023-08-17T06:16:51;16.30;1.00
7366;DHT22;3723;52.220;8.792;2023-08-17T06:19:19;16.40;1.00
7366;DHT22;3723;52.220;8.792;2023-08-17T06:21:50;16.40;1.00
7366;DHT22;3723;52.220;8.792;2023-08-17T06:24:21;16.40;1.00
7366;DHT22;3723;52.220;8.792;2023-08-17T06:26:48;16.50;1.00
7366;DHT22;3723;52.220;8.792;2023-08-17T06:29:14;16.50;1.00
7366;DHT22;3723;52.220;8.792;2023-08-17T06:31:41;16.50;1.00
7366;DHT22;3723;52.220;8.792;2023-08-17T06:37:01;16.50;1.00
7366;DHT22;3723;52.220;8.792;2023-08-17T06:39:29;16.50;1.00
7366;DHT22;3723;52.220;8.792;2023-08-17T06:42:02;16.50;1.00
7366;DHT22;3723;52.220;8.792;2023-08-17T06:44:29;16.60;1.00
7366;DHT22;3723;52.220;8.792;2023-08-17T06:47:03;16.60;1.00
7366;DHT22;3723;52.220;8.792;2023-08-17T06:49:57;16.60;1.00
7366;DHT22;3723;52.220;8.792;2023-08-17T06:52:24;16.60;1.00
7366;DHT22;3723;52.220;8.792;2023-08-17T06:54:51;16.60;1.00
7366;DHT22;3723;52.220;8.792;2023-08-17T06:57:20;16.60;1.00
7366;DHT22;3723;52.220;8.792;2023-08-17T06:59:50;16.60;1.00
7366;DHT22;3723;52.220;8.792;2023-08-17T07:02:20;16.70;1.00
7366;DHT22;3723;52.220;8.792;2023-08-17T07:04:48;16.70;1.00
7366;DHT22;3723;52.220;8.792;2023-08-17T07:07:24;16.70;1.00
7366;DHT22;3723;52.220;8.792;2023-08-17T07:09:56;16.70;1.00
7366;DHT22;3723;52.220;8.792;2023-08-17T07:12:23;16.70;1.00
7366;DHT22;3723;52.220;8.792;2023-08-17T07:14:50;16.80;1.00
7366;DHT22;3723;52.220;8.792;2023-08-17T07:17:18;16.80;1.00
7366;DHT22;3723;52.220;8.792;2023-08-17T07:19:50;16.70;1.00
7366;DHT22;3723;52.220;8.792;2023-08-17T07:22:19;16.80;1.00
7366;DHT22;3723;52.220;8.792;2023-08-17T07:24:50;16.80;1.00
7366;DHT22;3723;52.220;8.792;2023-08-17T07:27:18;16.90;1.00
7366;DHT22;3723;52.220;8.792;2023-08-17T07:29:47;16.90;1.00
7366;DHT22;3723;52.220;8.792;2023-08-17T07:32:13;17.00;1.00
7366;DHT22;3723;52.220;8.792;2023-08-17T07:34:41;17.00;1.00
7366;DHT22;3723;52.220;8.792;2023-08-17T07:37:14;17.00;1.00
7366;DHT22;3723;52.220;8.792;2023-08-17T07:39:47;17.20;1.00
7366;DHT22;3723;52.220;8.792;2023-08-17T07:42:14;17.20;1.00
7366;DHT22;3723;52.220;8.792;2023-08-17T07:44:41;17.30;1.00
7366;DHT22;3723;52.220;8.792;2023-08-17T07:47:13;17.30;1.00
7366;DHT22;3723;52.220;8.792;2023-08-17T07:49:40;17.30;1.00
7366;DHT22;3723;52.220;8.792;2023-08-17T07:52:08;17.30;1.00
7366;DHT22;3723;52.220;8.792;2023-08-17T07:54:36;17.30;1.00
7366;DHT22;3723;52.220;8.792;2023-08-17T07:57:04;17.30;1.00
7366;DHT22;3723;52.220;8.792;2023-08-17T07:59:32;17.30;1.00
7366;DHT22;3723;52.220;8.792;2023-08-17T08:01:59;17.30;1.00
7366;DHT22;3723;52.220;8.792;2023-08-17T08:04:27;17.30;1.00
7366;DHT22;3723;52.220;8.792;2023-08-17T08:06:54;17.30;1.00
7366;DHT22;3723;52.220;8.792;2023-08-17T08:09:21;17.40;1.00
7366;DHT22;3723;52.220;8.792;2023-08-17T08:11:50;17.50;1.00
7366;DHT22;3723;52.220;8.792;2023-08-17T08:14:18;17.50;1.00
7366;DHT22;3723;52.220;8.792;2023-08-17T08:16:48;17.60;1.00
7366;DHT22;3723;52.220;8.792;2023-08-17T08:19:15;17.60;1.00
7366;DHT22;3723;52.220;8.792;2023-08-17T08:21:43;17.70;1.00
7366;DHT22;3723;52.220;8.792;2023-08-17T08:24:10;17.80;1.00
7366;DHT22;3723;52.220;8.792;2023-08-17T08:26:41;17.90;1.00
7366;DHT22;3723;52.220;8.792;2023-08-17T08:29:27;17.90;1.00
7366;DHT22;3723;52.220;8.792;2023-08-17T08:31:54;17.90;1.00
7366;DHT22;3723;52.220;8.792;2023-08-17T08:34:23;18.00;1.00
7366;DHT22;3723;52.220;8.792;2023-08-17T08:36:50;18.00;1.00
7366;DHT22;3723;52.220;8.792;2023-08-17T08:39:18;18.00;1.00
7366;DHT22;3723;52.220;8.792;2023-08-17T08:41:48;18.00;1.00
7366;DHT22;3723;52.220;8.792;2023-08-17T08:44:20;18.00;1.00
7366;DHT22;3723;52.220;8.792;2023-08-17T08:47:22;18.00;1.00
7366;DHT22;3723;52.220;8.792;2023-08-17T08:49:57;18.00;1.00
7366;DHT22;3723;52.220;8.792;2023-08-17T08:52:33;17.90;1.00
7366;DHT22;3723;52.220;8.792;2023-08-17T08:55:09;17.90;1.00
7366;DHT22;3723;52.220;8.792;2023-08-17T08:57:47;17.90;1.00
7366;DHT22;3723;52.220;8.792;2023-08-17T09:00:16;18.10;1.00
7366;DHT22;3723;52.220;8.792;2023-08-17T09:02:45;18.20;1.00
7366;DHT22;3723;52.220;8.792;2023-08-17T09:05:14;18.40;1.00
7366;DHT22;3723;52.220;8.792;2023-08-17T09:07:42;18.50;1.00
7366;DHT22;3723;52.220;8.792;2023-08-17T09:10:10;18.70;1.00
7366;DHT22;3723;52.220;8.792;2023-08-17T09:12:44;18.70;1.00
7366;DHT22;3723;52.220;8.792;2023-08-17T09:15:14;18.80;1.00
7366;DHT22;3723;52.220;8.792;2023-08-17T09:17:50;18.80;1.00
7366;DHT22;3723;52.220;8.792;2023-08-17T09:20:37;18.90;1.00
7366;DHT22;3723;52.220;8.792;2023-08-17T09:23:13;18.90;99.90
7366;DHT22;3723;52.220;8.792;2023-08-17T09:25:41;19.00;1.00
7366;DHT22;3723;52.220;8.792;2023-08-17T09:28:18;19.10;1.00
7366;DHT22;3723;52.220;8.792;2023-08-17T09:30:53;19.10;1.00
7366;DHT22;3723;52.220;8.792;2023-08-17T09:33:37;19.20;99.90
7366;DHT22;3723;52.220;8.792;2023-08-17T09:36:06;19.20;99.90
7366;DHT22;3723;52.220;8.792;2023-08-17T09:38:32;19.20;99.90
7366;DHT22;3723;52.220;8.792;2023-08-17T09:40:59;19.20;99.90
7366;DHT22;3723;52.220;8.792;2023-08-17T09:43:27;19.10;99.90
7366;DHT22;3723;52.220;8.792;2023-08-17T09:45:57;19.20;99.90
7366;DHT22;3723;52.220;8.792;2023-08-17T09:48:28;19.30;99.90
7366;DHT22;3723;52.220;8.792;2023-08-17T09:50:56;19.30;99.90
7366;DHT22;3723;52.220;8.792;2023-08-17T09:53:24;19.50;99.90
7366;DHT22;3723;52.220;8.792;2023-08-17T09:55:51;19.50;99.90
7366;DHT22;3723;52.220;8.792;2023-08-17T09:58:20;19.60;99.90
7366;DHT22;3723;52.220;8.792;2023-08-17T10:00:49;19.60;99.90
7366;DHT22;3723;52.220;8.792;2023-08-17T10:03:18;19.70;99.90
7366;DHT22;3723;52.220;8.792;2023-08-17T10:05:56;19.70;99.90
7366;DHT22;3723;52.220;8.792;2023-08-17T10:08:26;19.60;99.90
7366;DHT22;3723;52.220;8.792;2023-08-17T10:10:55;19.40;99.90
7366;DHT22;3723;52.220;8.792;2023-08-17T10:13:30;19.30;99.90
7366;DHT22;3723;52.220;8.792;2023-08-17T10:16:02;19.20;99.90
7366;DHT22;3723;52.220;8.792;2023-08-17T10:18:34;19.20;99.90
7366;DHT22;3723;52.220;8.792;2023-08-17T10:21:07;19.20;99.90
7366;DHT22;3723;52.220;8.792;2023-08-17T10:23:37;19.30;99.90
7366;DHT22;3723;52.220;8.792;2023-08-17T10:26:05;19.20;99.90
7366;DHT22;3723;52.220;8.792;2023-08-17T10:28:34;19.20;99.90
7366;DHT22;3723;52.220;8.792;2023-08-17T10:31:03;19.20;99.90
7366;DHT22;3723;52.220;8.792;2023-08-17T10:33:30;19.20;99.90
7366;DHT22;3723;52.220;8.792;2023-08-17T10:35:59;19.20;99.90
7366;DHT22;3723;52.220;8.792;2023-08-17T10:38:29;19.30;99.90
7366;DHT22;3723;52.220;8.792;2023-08-17T10:41:08;19.60;99.90
7366;DHT22;3723;52.220;8.792;2023-08-17T10:43:53;19.80;99.90
7366;DHT22;3723;52.220;8.792;2023-08-17T10:46:20;19.90;99.90
7366;DHT22;3723;52.220;8.792;2023-08-17T10:48:52;20.10;99.90
7366;DHT22;3723;52.220;8.792;2023-08-17T10:51:23;20.10;99.90
7366;DHT22;3723;52.220;8.792;2023-08-17T10:53:52;20.20;99.90
7366;DHT22;3723;52.220;8.792;2023-08-17T10:56:19;20.30;99.90
7366;DHT22;3723;52.220;8.792;2023-08-17T10:58:46;20.50;99.90
7366;DHT22;3723;52.220;8.792;2023-08-17T11:01:33;20.60;99.90
7366;DHT22;3723;52.220;8.792;2023-08-17T11:04:11;20.80;99.90
7366;DHT22;3723;52.220;8.792;2023-08-17T11:06:38;20.90;99.90
7366;DHT22;3723;52.220;8.792;2023-08-17T11:09:08;20.90;99.90
7366;DHT22;3723;52.220;8.792;2023-08-17T11:11:35;21.00;99.90
7366;DHT22;3723;52.220;8.792;2023-08-17T11:14:02;21.10;99.90
7366;DHT22;3723;52.220;8.792;2023-08-17T11:16:29;21.10;99.90
7366;DHT22;3723;52.220;8.792;2023-08-17T11:18:56;21.10;99.90
7366;DHT22;3723;52.220;8.792;2023-08-17T11:21:24;21.00;99.90
7366;DHT22;3723;52.220;8.792;2023-08-17T11:24:16;21.00;99.90
7366;DHT22;3723;52.220;8.792;2023-08-17T11:26:43;21.10;99.90
7366;DHT22;3723;52.220;8.792;2023-08-17T11:29:10;21.20;99.90
7366;DHT22;3723;52.220;8.792;2023-08-17T11:31:39;21.50;99.90
7366;DHT22;3723;52.220;8.792;2023-08-17T11:34:09;21.70;99.90
7366;DHT22;3723;52.220;8.792;2023-08-17T11:36:41;21.70;99.90
7366;DHT22;3723;52.220;8.792;2023-08-17T11:39:10;21.70;99.90
7366;DHT22;3723;52.220;8.792;2023-08-17T11:41:38;21.40;99.90
7366;DHT22;3723;52.220;8.792;2023-08-17T11:44:06;21.20;99.90
7366;DHT22;3723;52.220;8.792;2023-08-17T11:46:48;20.80;99.90
7366;DHT22;3723;52.220;8.792;2023-08-17T11:49:17;20.50;99.90
7366;DHT22;3723;52.220;8.792;2023-08-17T11:51:44;20.30;99.90
7366;DHT22;3723;52.220;8.792;2023-08-17T11:54:13;20.10;99.90
7366;DHT22;3723;52.220;8.792;2023-08-17T11:56:40;19.90;99.90
7366;DHT22;3723;52.220;8.792;2023-08-17T11:59:10;19.80;99.90
7366;DHT22;3723;52.220;8.792;2023-08-17T12:06:42;19.90;99.90
7366;DHT22;3723;52.220;8.792;2023-08-17T12:09:13;19.80;99.90
7366;DHT22;3723;52.220;8.792;2023-08-17T12:11:44;19.80;99.90
7366;DHT22;3723;52.220;8.792;2023-08-17T12:14:15;19.90;99.90
7366;DHT22;3723;52.220;8.792;2023-08-17T12:16:46;19.90;99.90
7366;DHT22;3723;52.220;8.792;2023-08-17T12:19:15;19.80;99.90
7366;DHT22;3723;52.220;8.792;2023-08-17T12:21:43;19.80;99.90
7366;DHT22;3723;52.220;8.792;2023-08-17T12:24:17;19.80;99.90
7366;DHT22;3723;52.220;8.792;2023-08-17T12:26:50;19.80;99.90
7366;DHT22;3723;52.220;8.792;2023-08-17T12:29:18;19.80;99.90
7366;DHT22;3723;52.220;8.792;2023-08-17T12:31:45;19.80;99.90
7366;DHT22;3723;52.220;8.792;2023-08-17T12:34:12;19.80;99.90
7366;DHT22;3723;52.220;8.792;2023-08-17T12:36:43;19.80;99.90
7366;DHT22;3723;52.220;8.792;2023-08-17T12:39:13;19.80;99.90
7366;DHT22;3723;52.220;8.792;2023-08-17T12:41:45;19.80;99.90
7366;DHT22;3723;52.220;8.792;2023-08-17T12:44:14;20.00;99.90
7366;DHT22;3723;52.220;8.792;2023-08-17T12:46:41;20.10;99.90
7366;DHT22;3723;52.220;8.792;2023-08-17T12:49:07;20.10;99.90
7366;DHT22;3723;52.220;8.792;2023-08-17T12:51:34;20.30;99.90
7366;DHT22;3723;52.220;8.792;2023-08-17T12:54:03;20.40;99.90
7366;DHT22;3723;52.220;8.792;2023-08-17T12:56:30;20.50;99.90
7366;DHT22;3723;52.220;8.792;2023-08-17T12:58:59;20.40;99.90
7366;DHT22;3723;52.220;8.792;2023-08-17T13:01:25;20.30;99.90
7366;DHT22;3723;52.220;8.792;2023-08-17T13:03:52;20.20;99.90
7366;DHT22;3723;52.220;8.792;2023-08-17T13:06:19;20.00;99.90
7366;DHT22;3723;52.220;8.792;2023-08-17T13:08:46;19.90;99.90
7366;DHT22;3723;52.220;8.792;2023-08-17T13:11:13;19.70;99.90
7366;DHT22;3723;52.220;8.792;2023-08-17T13:13:40;19.60;99.90
7366;DHT22;3723;52.220;8.792;2023-08-17T13:16:09;19.50;99.90
7366;DHT22;3723;52.220;8.792;2023-08-17T13:18:36;19.40;99.90
7366;DHT22;3723;52.220;8.792;2023-08-17T13:21:03;19.30;99.90
7366;DHT22;3723;52.220;8.792;2023-08-17T13:23:30;19.30;99.90
7366;DHT22;3723;52.220;8.792;2023-08-17T13:25:58;19.30;99.90
7366;DHT22;3723;52.220;8.792;2023-08-17T13:28:25;19.30;99.90
7366;DHT22;3723;52.220;8.792;2023-08-17T13:30:51;19.30;99.90
7366;DHT22;3723;52.220;8.792;2023-08-17T13:33:20;19.30;99.90
7366;DHT22;3723;52.220;8.792;2023-08-17T13:35:47;19.30;99.90
7366;DHT22;3723;52.220;8.792;2023-08-17T13:38:13;19.20;99.90
7366;DHT22;3723;52.220;8.792;2023-08-17T13:40:40;19.30;99.90
7366;DHT22;3723;52.220;8.792;2023-08-17T13:43:07;19.30;99.90
7366;DHT22;3723;52.220;8.792;2023-08-17T13:45:38;19.40;99.90
7366;DHT22;3723;52.220;8.792;2023-08-17T13:48:06;19.40;99.90
7366;DHT22;3723;52.220;8.792;2023-08-17T13:50:37;19.40;99.90
7366;DHT22;3723;52.220;8.792;2023-08-17T13:53:05;19.40;99.90
7366;DHT22;3723;52.220;8.792;2023-08-17T13:55:32;19.30;99.90
7366;DHT22;3723;52.220;8.792;2023-08-17T13:57:59;19.30;99.90
7366;DHT22;3723;52.220;8.792;2023-08-17T14:00:26;19.30;99.90
7366;DHT22;3723;52.220;8.792;2023-08-17T14:02:53;19.20;99.90
7366;DHT22;3723;52.220;8.792;2023-08-17T14:05:20;19.10;99.90
7366;DHT22;3723;52.220;8.792;2023-08-17T14:07:48;19.00;99.90
7366;DHT22;3723;52.220;8.792;2023-08-17T14:10:15;18.80;99.90
7366;DHT22;3723;52.220;8.792;2023-08-17T14:12:42;18.80;99.90
7366;DHT22;3723;52.220;8.792;2023-08-17T14:15:09;18.70;99.90
7366;DHT22;3723;52.220;8.792;2023-08-17T14:17:36;18.70;99.90
7366;DHT22;3723;52.220;8.792;2023-08-17T14:20:06;18.70;99.90
7366;DHT22;3723;52.220;8.792;2023-08-17T14:22:37;18.70;99.90
7366;DHT22;3723;52.220;8.792;2023-08-17T14:25:08;18.70;99.90
7366;DHT22;3723;52.220;8.792;2023-08-17T14:27:35;18.70;99.90
7366;DHT22;3723;52.220;8.792;2023-08-17T14:30:03;18.80;99.90
7366;DHT22;3723;52.220;8.792;2023-08-17T14:32:31;18.90;99.90
7366;DHT22;3723;52.220;8.792;2023-08-17T14:34:59;19.00;99.90
7366;DHT22;3723;52.220;8.792;2023-08-17T14:37:26;19.10;99.90
7366;DHT22;3723;52.220;8.792;2023-08-17T14:39:53;19.20;99.90
7366;DHT22;3723;52.220;8.792;2023-08-17T14:42:21;19.20;99.90
7366;DHT22;3723;52.220;8.792;2023-08-17T14:44:49;19.10;99.90
7366;DHT22;3723;52.220;8.792;2023-08-17T14:47:16;19.00;99.90
7366;DHT22;3723;52.220;8.792;2023-08-17T14:49:43;19.00;99.90
7366;DHT22;3723;52.220;8.792;2023-08-17T14:52:10;19.00;99.90
7366;DHT22;3723;52.220;8.792;2023-08-17T14:54:37;18.90;99.90
7366;DHT22;3723;52.220;8.792;2023-08-17T14:57:04;18.80;99.90
7366;DHT22;3723;52.220;8.792;2023-08-17T14:59:32;18.80;99.90
7366;DHT22;3723;52.220;8.792;2023-08-17T15:01:59;18.80;99.90
7366;DHT22;3723;52.220;8.792;2023-08-17T15:04:26;18.70;99.90
7366;DHT22;3723;52.220;8.792;2023-08-17T15:06:53;18.70;99.90
7366;DHT22;3723;52.220;8.792;2023-08-17T15:09:20;18.70;99.90
7366;DHT22;3723;52.220;8.792;2023-08-17T15:11:47;18.70;99.90
7366;DHT22;3723;52.220;8.792;2023-08-17T15:14:16;18.70;99.90
7366;DHT22;3723;52.220;8.792;2023-08-17T15:16:44;18.70;99.90
7366;DHT22;3723;52.220;8.792;2023-08-17T15:19:11;18.70;99.90
7366;DHT22;3723;52.220;8.792;2023-08-17T15:21:38;18.70;99.90
7366;DHT22;3723;52.220;8.792;2023-08-17T15:24:20;18.60;99.90
7366;DHT22;3723;52.220;8.792;2023-08-17T15:26:47;18.50;99.90
7366;DHT22;3723;52.220;8.792;2023-08-17T15:29:15;18.50;99.90
7366;DHT22;3723;52.220;8.792;2023-08-17T15:31:45;18.40;99.90
7366;DHT22;3723;52.220;8.792;2023-08-17T15:34:12;18.40;99.90
7366;DHT22;3723;52.220;8.792;2023-08-17T15:36:39;18.30;99.90
7366;DHT22;3723;52.220;8.792;2023-08-17T15:39:07;18.30;99.90
7366;DHT22;3723;52.220;8.792;2023-08-17T15:41:34;18.40;99.90
7366;DHT22;3723;52.220;8.792;2023-08-17T15:44:01;18.40;99.90
7366;DHT22;3723;52.220;8.792;2023-08-17T15:46:28;18.40;99.90
7366;DHT22;3723;52.220;8.792;2023-08-17T15:48:58;18.40;99.90
7366;DHT22;3723;52.220;8.792;2023-08-17T15:51:25;18.40;99.90
7366;DHT22;3723;52.220;8.792;2023-08-17T15:53:54;18.50;99.90
7366;DHT22;3723;52.220;8.792;2023-08-17T15:56:21;18.50;99.90
7366;DHT22;3723;52.220;8.792;2023-08-17T15:58:48;18.50;99.90
7366;DHT22;3723;52.220;8.792;2023-08-17T16:01:15;18.50;99.90
7366;DHT22;3723;52.220;8.792;2023-08-17T16:03:43;18.50;99.90
7366;DHT22;3723;52.220;8.792;2023-08-17T16:06:12;18.40;99.90
7366;DHT22;3723;52.220;8.792;2023-08-17T16:08:44;18.40;99.90
7366;DHT22;3723;52.220;8.792;2023-08-17T16:11:15;18.20;99.90
7366;DHT22;3723;52.220;8.792;2023-08-17T16:13:42;18.20;99.90
7366;DHT22;3723;52.220;8.792;2023-08-17T16:16:09;18.10;99.90
7366;DHT22;3723;52.220;8.792;2023-08-17T16:18:36;18.10;99.90
7366;DHT22;3723;52.220;8.792;2023-08-17T16:21:03;18.10;99.90
7366;DHT22;3723;52.220;8.792;2023-08-17T16:23:32;18.00;99.90
7366;DHT22;3723;52.220;8.792;2023-08-17T16:26:00;18.00;99.90
7366;DHT22;3723;52.220;8.792;2023-08-17T16:28:32;17.90;99.90
7366;DHT22;3723;52.220;8.792;2023-08-17T16:30:58;17.80;99.90
7366;DHT22;3723;52.220;8.792;2023-08-17T16:33:25;17.80;99.90
7366;DHT22;3723;52.220;8.792;2023-08-17T16:35:52;17.80;99.90
7366;DHT22;3723;52.220;8.792;2023-08-17T16:38:19;17.70;99.90
7366;DHT22;3723;52.220;8.792;2023-08-17T16:40:47;17.70;99.90